createdAt,value
2018-08-13T00:00:19.087Z,7.03
2018-08-13T00:02:57.932Z,6.73
2018-08-13T00:05:26.478Z,7.57
2018-08-13T00:07:55.016Z,10.10
2018-08-13T00:10:27.694Z,7.10
2018-08-13T00:12:56.708Z,8.00
2018-08-13T00:15:25.229Z,8.00
2018-08-13T00:17:58.258Z,7.53
2018-08-13T00:20:27.509Z,8.13
2018-08-13T00:22:56.989Z,9.57
2018-08-13T00:25:51.925Z,8.43
2018-08-13T00:28:31.120Z,8.53
2018-08-13T00:31:10.418Z,8.63
2018-08-13T00:33:38.981Z,9.80
2018-08-13T00:36:11.238Z,9.77
2018-08-13T00:38:59.537Z,9.80
2018-08-13T00:41:31.737Z,10.30
2018-08-13T00:47:22.395Z,9.23
2018-08-13T00:49:53.743Z,10.57
2018-08-13T00:52:22.374Z,9.37
2018-08-13T00:55:32.287Z,9.67
2018-08-13T00:58:15.262Z,9.90
2018-08-13T01:00:50.945Z,12.70
2018-08-13T01:03:19.723Z,11.00
2018-08-13T01:05:48.446Z,10.13
2018-08-13T01:08:17.109Z,10.70
2018-08-13T01:10:45.894Z,9.47
2018-08-13T01:13:14.541Z,9.17
2018-08-13T01:15:43.201Z,8.80
2018-08-13T01:18:11.975Z,10.23
2018-08-13T01:20:40.645Z,10.57
2018-08-13T01:23:09.341Z,9.40
2018-08-13T01:25:38.168Z,10.70
2018-08-13T01:28:06.865Z,11.67
2018-08-13T01:30:35.517Z,10.33
2018-08-13T01:33:04.285Z,11.07
2018-08-13T01:35:32.960Z,11.97
2018-08-13T01:38:01.609Z,12.30
2018-08-13T01:40:30.379Z,13.50
2018-08-13T01:42:59.089Z,13.20
2018-08-13T01:45:27.877Z,12.60
2018-08-13T01:47:56.540Z,11.20
2018-08-13T01:50:25.297Z,12.13
2018-08-13T01:52:54.010Z,11.73
2018-08-13T01:55:22.712Z,12.43
2018-08-13T01:57:51.466Z,12.37
2018-08-13T02:00:20.357Z,11.60
2018-08-13T02:02:49.045Z,11.80
2018-08-13T02:05:17.768Z,13.80
2018-08-13T02:07:46.425Z,11.13
2018-08-13T02:10:14.989Z,11.73
2018-08-13T02:12:43.537Z,11.50
2018-08-13T02:15:12.183Z,13.20
2018-08-13T02:17:40.835Z,12.87
2018-08-13T02:20:09.775Z,12.60
2018-08-13T02:22:38.567Z,12.20
2018-08-13T02:25:07.816Z,12.13
2018-08-13T02:27:36.474Z,13.43
2018-08-13T02:30:07.803Z,13.20
2018-08-13T02:32:36.502Z,13.37
2018-08-13T02:35:05.954Z,15.60
2018-08-13T02:37:34.538Z,14.97
2018-08-13T02:40:03.130Z,14.03
2018-08-13T02:42:31.733Z,13.00
2018-08-13T02:45:00.291Z,15.33
2018-08-13T02:47:29.052Z,14.80
2018-08-13T02:49:57.616Z,15.80
2018-08-13T02:52:26.202Z,15.90
2018-08-13T02:54:54.734Z,15.63
2018-08-13T02:57:23.300Z,16.00
2018-08-13T02:59:51.905Z,16.60
2018-08-13T03:02:20.445Z,16.13
2018-08-13T03:04:49.112Z,15.37
2018-08-13T03:07:17.575Z,15.60
2018-08-13T03:09:46.096Z,14.50
2018-08-13T03:12:14.614Z,14.67
2018-08-13T03:14:43.186Z,15.50
2018-08-13T03:17:12.625Z,13.40
2018-08-13T03:19:41.197Z,14.37
2018-08-13T03:22:09.834Z,16.90
2018-08-13T03:24:38.445Z,13.60
2018-08-13T03:27:06.975Z,15.80
2018-08-13T03:29:35.485Z,14.67
2018-08-13T03:32:04.066Z,15.13
2018-08-13T03:34:32.605Z,13.70
2018-08-13T03:37:01.131Z,13.43
2018-08-13T03:39:29.665Z,12.57
2018-08-13T03:41:58.262Z,13.50
2018-08-13T03:44:26.853Z,14.00
2018-08-13T03:46:55.369Z,13.03
2018-08-13T03:49:24.093Z,13.40
2018-08-13T03:51:52.645Z,12.83
2018-08-13T03:54:21.172Z,12.50
2018-08-13T03:56:49.809Z,13.97
2018-08-13T03:59:18.474Z,14.80
2018-08-13T04:01:47.018Z,12.73
2018-08-13T04:04:15.573Z,12.80
2018-08-13T04:06:44.110Z,11.60
2018-08-13T04:09:12.617Z,14.90
2018-08-13T04:11:41.189Z,12.63
2018-08-13T04:14:09.869Z,11.80
2018-08-13T04:16:39.073Z,12.30
2018-08-13T04:19:08.598Z,13.17
2018-08-13T04:21:37.138Z,12.50
2018-08-13T04:24:05.678Z,13.57
2018-08-13T04:26:34.270Z,13.37
2018-08-13T04:29:02.865Z,12.57
2018-08-13T04:31:31.414Z,12.00
2018-08-13T04:34:00.045Z,11.57
2018-08-13T04:36:28.657Z,11.30
2018-08-13T04:38:57.218Z,11.93
2018-08-13T04:41:25.702Z,13.17
2018-08-13T04:43:54.339Z,12.73
2018-08-13T04:46:23.127Z,13.97
2018-08-13T04:48:51.674Z,12.97
2018-08-13T04:51:20.293Z,13.63
2018-08-13T04:53:48.839Z,13.80
2018-08-13T04:56:17.382Z,14.40
2018-08-13T04:58:46.071Z,13.37
2018-08-13T05:01:14.720Z,11.00
2018-08-13T05:03:43.344Z,8.93
2018-08-13T05:06:11.926Z,9.20
2018-08-13T05:08:40.506Z,8.90
2018-08-13T05:11:09.061Z,11.50
2018-08-13T05:13:37.932Z,8.87
2018-08-13T05:16:06.603Z,8.57
2018-08-13T05:18:35.161Z,9.83
2018-08-13T05:21:03.782Z,7.83
2018-08-13T05:23:32.318Z,12.07
2018-08-13T05:26:00.889Z,8.63
2018-08-13T05:28:29.445Z,9.53
2018-08-13T05:30:57.994Z,7.37
2018-08-13T05:33:26.558Z,8.27
2018-08-13T05:35:55.107Z,7.30
2018-08-13T05:38:23.846Z,7.60
2018-08-13T05:40:52.422Z,8.20
2018-08-13T05:43:21.093Z,7.47
2018-08-13T05:45:49.642Z,6.73
2018-08-13T05:48:18.284Z,6.63
2018-08-13T05:50:46.988Z,5.67
2018-08-13T05:53:15.607Z,6.23
2018-08-13T05:55:44.210Z,6.20
2018-08-13T05:58:12.789Z,6.87
2018-08-13T06:00:41.592Z,5.53
2018-08-13T06:03:10.279Z,5.17
2018-08-13T06:05:38.856Z,7.43
2018-08-13T06:08:07.476Z,5.47
2018-08-13T06:10:36.087Z,7.07
2018-08-13T06:13:04.660Z,5.13
2018-08-13T06:15:33.212Z,4.93
2018-08-13T06:18:02.091Z,5.17
2018-08-13T06:20:31.760Z,6.27
2018-08-13T06:23:00.387Z,5.07
2018-08-13T06:25:29.116Z,5.87
2018-08-13T06:27:57.822Z,6.37
2018-08-13T06:30:26.442Z,7.37
2018-08-13T06:32:55.098Z,5.03
2018-08-13T06:35:23.926Z,4.97
2018-08-13T06:37:52.520Z,6.57
2018-08-13T06:40:21.427Z,5.33
2018-08-13T06:42:50.048Z,4.57
2018-08-13T06:45:18.853Z,5.03
2018-08-13T06:47:47.491Z,4.70
2018-08-13T06:50:16.059Z,5.23
2018-08-13T06:52:44.660Z,4.93
2018-08-13T06:55:13.245Z,5.00
2018-08-13T06:57:41.990Z,5.87
2018-08-13T07:00:12.560Z,4.87
2018-08-13T07:02:41.399Z,4.23
2018-08-13T07:05:10.807Z,3.80
2018-08-13T07:07:40.275Z,6.67
2018-08-13T07:10:13.977Z,3.97
2018-08-13T07:12:44.001Z,5.80
2018-08-13T07:15:13.234Z,8.07
2018-08-13T07:17:41.917Z,5.37
2018-08-13T07:20:13.121Z,4.23
2018-08-13T07:22:41.818Z,4.73
2018-08-13T07:25:10.554Z,6.50
2018-08-13T07:27:40.365Z,7.50
2018-08-13T07:30:11.738Z,5.10
2018-08-13T07:32:40.337Z,5.37
2018-08-13T07:35:09.154Z,5.73
2018-08-13T07:37:37.720Z,6.10
2018-08-13T07:40:07.890Z,5.77
2018-08-13T07:42:36.533Z,5.83
2018-08-13T07:45:06.165Z,5.40
2018-08-13T07:47:34.827Z,7.23
2018-08-13T07:50:03.400Z,5.63
2018-08-13T07:52:31.994Z,9.07
2018-08-13T07:55:00.609Z,5.37
2018-08-13T07:57:29.228Z,6.67
2018-08-13T07:59:57.930Z,6.40
2018-08-13T08:02:26.533Z,7.70
2018-08-13T08:04:55.119Z,7.97
2018-08-13T08:07:23.705Z,8.97
2018-08-13T08:09:52.218Z,5.70
2018-08-13T08:12:20.820Z,9.73
2018-08-13T08:14:49.524Z,5.40
2018-08-13T08:17:18.026Z,4.90
2018-08-13T08:19:46.622Z,6.80
2018-08-13T08:22:15.202Z,5.93
2018-08-13T08:24:43.811Z,5.77
2018-08-13T08:27:12.362Z,4.57
2018-08-13T08:29:40.984Z,5.50
2018-08-13T08:32:09.533Z,4.40
2018-08-13T08:34:38.178Z,5.30
2018-08-13T08:37:06.800Z,6.87
2018-08-13T08:39:35.319Z,4.73
2018-08-13T08:42:03.912Z,4.93
2018-08-13T08:44:32.614Z,4.67
2018-08-13T08:47:01.502Z,4.80
2018-08-13T08:49:30.085Z,4.97
2018-08-13T08:51:58.722Z,5.47
2018-08-13T08:54:27.622Z,4.40
2018-08-13T08:56:56.401Z,5.17
2018-08-13T08:59:25.026Z,4.80
2018-08-13T09:01:53.562Z,5.33
2018-08-13T09:04:22.350Z,5.00
2018-08-13T09:06:50.979Z,4.47
2018-08-13T09:09:19.569Z,4.70
2018-08-13T09:11:48.100Z,4.80
2018-08-13T09:14:16.774Z,4.80
2018-08-13T09:16:46.842Z,5.10
2018-08-13T09:21:34.956Z,4.80
2018-08-13T09:24:15.343Z,5.27
2018-08-13T09:26:55.294Z,5.37
2018-08-13T09:29:34.998Z,6.10
2018-08-13T09:32:31.773Z,6.27
2018-08-13T09:35:22.039Z,4.80
2018-08-13T09:37:50.953Z,5.07
2018-08-13T09:40:19.576Z,5.20
2018-08-13T09:42:48.149Z,5.27
2018-08-13T09:45:16.720Z,5.03
2018-08-13T09:47:45.298Z,5.73
2018-08-13T09:50:16.392Z,5.60
2018-08-13T09:52:45.745Z,7.47
2018-08-13T09:55:15.105Z,5.63
2018-08-13T09:57:44.652Z,5.37
2018-08-13T10:00:19.650Z,5.97
2018-08-13T10:02:48.993Z,5.20
2018-08-13T10:05:17.822Z,7.33
2018-08-13T10:07:47.135Z,5.70
2018-08-13T10:10:16.559Z,5.33
2018-08-13T10:12:45.732Z,5.67
2018-08-13T10:15:14.725Z,5.97
2018-08-13T10:17:43.317Z,5.33
2018-08-13T10:20:14.750Z,5.90
2018-08-13T10:22:43.326Z,5.53
2018-08-13T10:25:12.818Z,5.73
2018-08-13T10:27:41.959Z,6.43
2018-08-13T10:30:12.006Z,5.73
2018-08-13T10:32:41.125Z,6.23
2018-08-13T10:35:10.088Z,6.10
2018-08-13T10:37:39.157Z,6.03
2018-08-13T10:40:11.004Z,6.00
2018-08-13T10:42:39.643Z,5.80
2018-08-13T10:45:08.365Z,6.00
2018-08-13T10:47:37.169Z,5.70
2018-08-13T10:50:07.231Z,5.43
2018-08-13T10:52:35.784Z,6.00
2018-08-13T10:55:04.785Z,6.30
2018-08-13T10:57:33.592Z,5.53
2018-08-13T11:00:02.229Z,5.97
2018-08-13T11:02:30.822Z,5.90
2018-08-13T11:04:59.686Z,5.67
2018-08-13T11:07:28.287Z,5.67
2018-08-13T11:09:57.152Z,6.33
2018-08-13T11:12:26.003Z,5.93
2018-08-13T11:14:54.693Z,5.40
2018-08-13T11:17:23.314Z,5.80
2018-08-13T11:19:52.076Z,5.70
2018-08-13T11:22:20.651Z,5.80
2018-08-13T11:24:49.275Z,6.03
2018-08-13T11:27:17.937Z,5.33
2018-08-13T11:29:46.709Z,5.93
2018-08-13T11:32:15.422Z,6.53
2018-08-13T11:34:44.100Z,5.73
2018-08-13T11:37:12.667Z,6.13
2018-08-13T11:39:41.321Z,5.30
2018-08-13T11:42:09.948Z,5.60
2018-08-13T11:44:38.549Z,6.67
2018-08-13T11:47:07.299Z,5.63
2018-08-13T11:49:35.876Z,5.43
2018-08-13T11:52:04.739Z,5.37
2018-08-13T11:54:33.333Z,5.27
2018-08-13T11:57:02.308Z,5.37
2018-08-13T11:59:30.991Z,5.43
2018-08-13T12:01:59.811Z,5.37
2018-08-13T12:04:28.409Z,5.00
2018-08-13T12:06:56.967Z,5.67
2018-08-13T12:09:25.567Z,5.00
2018-08-13T12:11:54.118Z,5.47
2018-08-13T12:14:22.685Z,5.47
2018-08-13T12:16:53.198Z,5.23
2018-08-13T12:19:21.769Z,5.10
2018-08-13T12:21:50.301Z,6.47
2018-08-13T12:24:18.914Z,5.47
2018-08-13T12:26:48.573Z,5.17
2018-08-13T12:29:17.219Z,5.60
2018-08-13T12:31:45.894Z,5.53
2018-08-13T12:34:14.486Z,5.43
2018-08-13T12:36:43.138Z,5.57
2018-08-13T12:39:12.906Z,5.80
2018-08-13T12:41:41.589Z,4.60
2018-08-13T12:44:10.250Z,5.20
2018-08-13T12:46:38.829Z,5.10
2018-08-13T12:49:07.409Z,4.43
2018-08-13T12:51:35.928Z,3.90
2018-08-13T12:54:04.654Z,4.70
2018-08-13T12:56:33.345Z,4.50
2018-08-13T12:59:02.039Z,4.77
2018-08-13T13:01:30.640Z,4.80
2018-08-13T13:03:59.332Z,5.77
2018-08-13T13:06:28.126Z,4.80
2018-08-13T13:08:56.694Z,5.60
2018-08-13T13:11:25.691Z,4.83
2018-08-13T13:13:54.304Z,4.37
2018-08-13T13:16:23.100Z,4.77
2018-08-13T13:18:51.672Z,5.43
2018-08-13T13:21:20.365Z,4.87
2018-08-13T13:23:48.940Z,4.93
2018-08-13T13:26:17.588Z,4.83
2018-08-13T13:28:46.215Z,4.90
2018-08-13T13:31:14.779Z,5.10
2018-08-13T13:33:43.382Z,5.13
2018-08-13T13:36:11.922Z,5.20
2018-08-13T13:38:40.513Z,5.10
2018-08-13T13:41:09.056Z,5.00
2018-08-13T13:43:37.670Z,4.80
2018-08-13T13:46:06.390Z,5.30
2018-08-13T13:48:35.610Z,5.90
2018-08-13T13:51:04.361Z,5.43
2018-08-13T13:53:33.013Z,5.27
2018-08-13T13:56:01.618Z,6.00
2018-08-13T13:58:30.190Z,5.63
2018-08-13T14:00:58.746Z,5.10
2018-08-13T14:03:27.310Z,4.63
2018-08-13T14:05:55.998Z,5.10
2018-08-13T14:08:24.664Z,5.43
2018-08-13T14:10:53.341Z,5.37
2018-08-13T14:13:21.906Z,5.57
2018-08-13T14:15:50.548Z,5.77
2018-08-13T14:18:19.163Z,5.60
2018-08-13T14:20:47.867Z,6.17
2018-08-13T14:23:16.584Z,6.13
2018-08-13T14:25:45.786Z,5.97
2018-08-13T14:28:14.470Z,5.50
2018-08-13T14:30:43.091Z,7.03
2018-08-13T14:33:11.663Z,5.63
2018-08-13T14:35:40.327Z,5.63
2018-08-13T14:38:08.945Z,6.50
2018-08-13T14:40:37.862Z,7.67
2018-08-13T14:43:06.650Z,6.50
2018-08-13T14:45:35.271Z,6.77
2018-08-13T14:48:04.116Z,6.57
2018-08-13T14:50:32.703Z,6.03
2018-08-13T14:53:02.325Z,5.67
2018-08-13T14:55:30.943Z,5.53
2018-08-13T14:57:59.557Z,7.50
2018-08-13T15:00:33.151Z,6.23
2018-08-13T15:03:01.818Z,7.77
2018-08-13T15:05:30.652Z,7.53
2018-08-13T15:07:59.356Z,5.80
2018-08-13T15:10:28.007Z,6.53
2018-08-13T15:12:56.800Z,6.10
2018-08-13T15:15:25.739Z,5.43
2018-08-13T15:17:54.359Z,5.13
2018-08-13T15:20:25.006Z,6.57
2018-08-13T15:22:53.918Z,5.47
2018-08-13T15:25:23.564Z,6.37
2018-08-13T15:27:52.327Z,6.43
2018-08-13T15:30:21.488Z,5.60
2018-08-13T15:32:50.915Z,4.80
2018-08-13T15:35:19.677Z,5.37
2018-08-13T15:37:49.675Z,4.93
2018-08-13T15:40:19.373Z,8.40
2018-08-13T15:42:48.041Z,8.27
2018-08-13T15:45:19.113Z,6.17
2018-08-13T15:47:48.248Z,6.40
2018-08-13T15:50:18.387Z,8.43
2018-08-13T15:52:47.430Z,11.23
2018-08-13T15:55:16.324Z,9.23
2018-08-13T15:57:45.412Z,6.47
2018-08-13T16:00:17.078Z,8.87
2018-08-13T16:02:46.603Z,7.27
2018-08-13T16:05:15.199Z,6.07
2018-08-13T16:07:43.918Z,5.87
2018-08-13T16:10:14.057Z,4.90
2018-08-13T16:12:43.249Z,5.40
2018-08-13T16:15:11.857Z,6.53
2018-08-13T16:17:40.742Z,5.90
2018-08-13T16:20:11.656Z,5.07
2018-08-13T16:22:40.291Z,5.13
2018-08-13T16:25:09.080Z,7.40
2018-08-13T16:27:38.041Z,5.23
2018-08-13T16:30:15.632Z,5.33
2018-08-13T16:32:44.612Z,4.97
2018-08-13T16:35:13.227Z,5.07
2018-08-13T16:37:41.816Z,8.87
2018-08-13T16:40:10.500Z,6.17
2018-08-13T16:42:39.522Z,5.07
2018-08-13T16:45:08.853Z,4.97
2018-08-13T16:47:37.421Z,5.27
2018-08-13T16:50:25.311Z,5.30
2018-08-13T16:52:54.241Z,6.00
2018-08-13T16:55:22.971Z,5.60
2018-08-13T16:57:51.563Z,7.40
2018-08-13T17:00:21.720Z,5.80
2018-08-13T17:02:50.596Z,5.43
2018-08-13T17:05:19.210Z,5.60
2018-08-13T17:07:47.765Z,6.20
2018-08-13T17:10:19.765Z,6.13
2018-08-13T17:12:53.752Z,6.17
2018-08-13T17:15:22.821Z,5.37
2018-08-13T17:17:52.904Z,5.73
2018-08-13T17:20:25.424Z,5.73
2018-08-13T17:22:53.961Z,5.10
2018-08-13T17:25:22.684Z,6.33
2018-08-13T17:27:51.414Z,5.93
2018-08-13T17:30:22.056Z,4.80
2018-08-13T17:32:51.896Z,5.13
2018-08-13T17:35:22.435Z,5.53
2018-08-13T17:37:51.119Z,4.90
2018-08-13T17:40:21.325Z,5.33
2018-08-13T17:42:50.388Z,5.67
2018-08-13T17:45:18.893Z,5.93
2018-08-13T17:47:47.632Z,6.07
2018-08-13T17:50:17.647Z,5.70
2018-08-13T17:52:46.860Z,5.57
2018-08-13T17:55:16.188Z,5.17
2018-08-13T17:57:45.268Z,5.10
2018-08-13T18:00:21.238Z,6.17
2018-08-13T18:02:49.980Z,6.20
2018-08-13T18:05:20.782Z,7.57
2018-08-13T18:07:49.896Z,7.17
2018-08-13T18:10:22.985Z,7.43
2018-08-13T18:12:51.691Z,6.73
2018-08-13T18:15:20.343Z,5.53
2018-08-13T18:17:49.193Z,5.87
2018-08-13T18:20:17.861Z,9.80
2018-08-13T18:22:46.542Z,5.73
2018-08-13T18:25:15.764Z,5.80
2018-08-13T18:27:45.752Z,6.93
2018-08-13T18:30:16.089Z,7.07
2018-08-13T18:32:45.555Z,5.90
2018-08-13T18:35:14.478Z,7.67
2018-08-13T18:37:43.303Z,6.23
2018-08-13T18:40:15.456Z,6.33
2018-08-13T18:42:44.249Z,6.67
2018-08-13T18:45:13.446Z,6.23
2018-08-13T18:47:42.021Z,6.70
2018-08-13T18:50:12.626Z,6.90
2018-08-13T18:52:41.521Z,7.93
2018-08-13T18:55:10.765Z,7.70
2018-08-13T18:57:39.430Z,8.17
2018-08-13T19:00:09.900Z,12.23
2018-08-13T19:02:38.643Z,8.17
2018-08-13T19:05:08.137Z,8.57
2018-08-13T19:07:36.724Z,8.40
2018-08-13T19:10:07.631Z,8.17
2018-08-13T19:12:36.217Z,8.87
2018-08-13T19:15:05.942Z,8.23
2018-08-13T19:17:34.562Z,8.70
2018-08-13T19:20:03.146Z,9.90
2018-08-13T19:22:31.737Z,10.37
2018-08-13T19:25:00.370Z,10.47
2018-08-13T19:27:29.000Z,9.90
2018-08-13T19:29:57.615Z,12.50
2018-08-13T19:32:26.165Z,10.27
2018-08-13T19:34:54.769Z,9.03
2018-08-13T19:37:23.393Z,11.20
2018-08-13T19:39:51.937Z,10.63
2018-08-13T19:42:20.570Z,9.13
2018-08-13T19:44:49.219Z,9.63
2018-08-13T19:47:17.730Z,10.07
2018-08-13T19:49:46.961Z,9.70
2018-08-13T19:52:15.421Z,8.47
2018-08-13T19:54:44.025Z,8.67
2018-08-13T19:57:12.626Z,8.60
2018-08-13T19:59:41.236Z,10.50
2018-08-13T20:02:09.828Z,9.13
2018-08-13T20:04:38.498Z,10.03
2018-08-13T20:07:07.075Z,8.90
2018-08-13T20:09:35.610Z,8.87
2018-08-13T20:12:04.664Z,9.93
2018-08-13T20:14:33.224Z,11.30
2018-08-13T20:17:01.841Z,9.57
2018-08-13T20:19:30.459Z,10.00
2018-08-13T20:21:58.991Z,10.57
2018-08-13T20:24:27.611Z,8.73
2018-08-13T20:26:56.154Z,9.63
2018-08-13T20:29:24.769Z,9.77
2018-08-13T20:31:53.386Z,10.33
2018-08-13T20:34:21.936Z,9.33
2018-08-13T20:36:50.529Z,10.07
2018-08-13T20:39:18.994Z,9.63
2018-08-13T20:41:47.565Z,10.67
2018-08-13T20:44:16.116Z,11.50
2018-08-13T20:46:44.698Z,10.43
2018-08-13T20:49:13.201Z,9.47
2018-08-13T20:51:41.745Z,9.87
2018-08-13T20:54:10.375Z,12.47
2018-08-13T20:56:38.945Z,10.83
2018-08-13T20:59:07.519Z,10.13
2018-08-13T21:01:36.073Z,10.37
2018-08-13T21:04:04.675Z,10.80
2018-08-13T21:06:33.262Z,11.50
2018-08-13T21:09:01.955Z,12.50
2018-08-13T21:11:30.459Z,11.37
2018-08-13T21:13:59.083Z,13.33
2018-08-13T21:16:27.695Z,11.00
2018-08-13T21:18:56.269Z,11.80
2018-08-13T21:21:24.816Z,13.80
2018-08-13T21:23:53.370Z,11.80
2018-08-13T21:26:21.922Z,11.53
2018-08-13T21:28:50.563Z,11.47
2018-08-13T21:31:19.146Z,14.57
2018-08-13T21:33:47.725Z,12.80
2018-08-13T21:36:16.365Z,14.07
2018-08-13T21:38:45.017Z,12.53
2018-08-13T21:41:13.542Z,11.63
2018-08-13T21:43:42.156Z,12.97
2018-08-13T21:46:10.672Z,12.23
2018-08-13T21:48:39.256Z,11.53
2018-08-13T21:51:07.971Z,12.40
2018-08-13T21:53:36.533Z,12.67
2018-08-13T21:56:05.136Z,12.20
2018-08-13T21:58:33.731Z,11.57
2018-08-13T22:01:07.633Z,12.30
2018-08-13T22:03:36.397Z,13.20
2018-08-13T22:06:05.066Z,11.73
2018-08-13T22:08:33.706Z,12.73
2018-08-13T22:11:02.281Z,12.37
2018-08-13T22:13:30.870Z,12.60
2018-08-13T22:15:59.430Z,12.47
2018-08-13T22:18:28.061Z,12.20
2018-08-13T22:20:56.573Z,12.80
2018-08-13T22:23:25.144Z,13.13
2018-08-13T22:25:53.665Z,13.97
2018-08-13T22:28:22.277Z,13.73
2018-08-13T22:30:50.833Z,13.93
2018-08-13T22:33:19.405Z,13.60
2018-08-13T22:35:48.048Z,14.67
2018-08-13T22:38:16.614Z,16.07
2018-08-13T22:40:45.153Z,13.53
2018-08-13T22:43:13.717Z,13.43
2018-08-13T22:45:42.229Z,15.17
2018-08-13T22:48:10.883Z,14.70
2018-08-13T22:50:39.625Z,14.87
2018-08-13T22:53:08.215Z,16.93
2018-08-13T22:55:36.824Z,14.20
2018-08-13T22:58:05.533Z,15.57
2018-08-13T23:00:34.126Z,15.90
2018-08-13T23:03:02.711Z,16.17
2018-08-13T23:05:31.275Z,15.83
2018-08-13T23:07:59.903Z,15.90
2018-08-13T23:10:28.621Z,15.83
2018-08-13T23:12:57.367Z,15.63
2018-08-13T23:15:25.962Z,15.07
2018-08-13T23:17:54.734Z,16.37
2018-08-13T23:20:25.357Z,16.07
2018-08-13T23:22:57.839Z,16.27
2018-08-13T23:25:26.945Z,16.33
2018-08-13T23:27:56.878Z,17.10
2018-08-13T23:30:25.469Z,19.67
2018-08-13T23:32:54.908Z,15.83
2018-08-13T23:35:24.116Z,17.20
2018-08-13T23:37:53.309Z,17.47
2018-08-13T23:40:22.066Z,17.83
2018-08-13T23:42:50.650Z,16.70
2018-08-13T23:45:24.114Z,17.17
2018-08-13T23:47:53.501Z,17.90
2018-08-13T23:50:23.461Z,18.57
2018-08-13T23:52:53.173Z,18.30
2018-08-13T23:55:25.106Z,16.80
2018-08-13T23:57:53.857Z,19.03
